Data for 06/28/2005

Time Sea-Level Adjusted Pressure Absolute Pressure Temperature Relative Humidity Dew Point   
(mb) (inHg) (mb) (inHg) (C) (F) (%) (C) (F)
00:05 1015 29.97 844 24.92 11.4 52.5 83 8.6 47.4
00:10 1015 29.97 844 24.92 11.3 52.3 83 8.6 47.4
00:15 1015 29.97 844 24.92 11.2 52.2 83 8.5 47.3
00:20 1015 29.97 844 24.92 11.3 52.3 82 8.4 47.1
00:25 1015 29.97 844 24.92 11.3 52.3 81 8.2 46.8
00:30 1015 29.97 844 24.92 11.3 52.3 81 8.3 46.9
00:35 1015 29.97 844 24.92 11.2 52.2 83 8.4 47.1
00:40 1015 29.97 844 24.92 11.1 52 83 8.3 46.9
00:45 1015 29.97 844 24.92 11 51.9 83 8.2 46.8
00:50 1015 29.97 844 24.92 11.1 52 82 8.2 46.8
00:55 1015 29.97 844 24.92 11.1 52 82 8.1 46.6
01:00 1015 29.97 844 24.92 11.2 52.1 82 8.2 46.7
01:05 1015 29.97 844 24.92 11.1 52 82 8.2 46.7
01:10 1015 29.97 844 24.92 10.8 51.4 84 8.2 46.8
01:15 1015 29.97 844 24.92 10.6 51.2 84 8.1 46.6
01:20 1015 29.97 844 24.92 10.6 51.1 84 8 46.4
01:25 1015 29.97 844 24.92 10.7 51.3 83 7.9 46.3
01:30 1015 29.97 844 24.92 10.9 51.5 82 8 46.4
01:35 1015 29.97 844 24.92 10.8 51.4 83 8 46.4
01:40 1015 29.97 844 24.92 10.8 51.4 81 7.7 45.8
01:45 1015 29.97 844 24.92 10.9 51.7 81 7.8 46
01:50 1015 29.97 844 24.92 11 51.8 79 7.6 45.7
01:55 1015 29.97 844 24.92 11 51.7 80 7.6 45.8
02:00 1015 29.97 844 24.92 10.9 51.6 81 7.7 45.9
02:05 1015 29.97 844 24.92 10.9 51.5 81 7.7 45.9
02:10 1015 29.97 844 24.92 11.1 51.9 78 7.5 45.5
02:15 1015 29.97 844 24.92 11 51.8 79 7.6 45.6
02:20 1015 29.97 844 24.92 10.8 51.4 80 7.5 45.5
02:25 1015 29.97 844 24.92 10.6 51 79 7.1 44.7
02:30 1015 29.97 844 24.92 10.7 51.3 78 7.1 44.7
02:35 1015 29.97 844 24.92 10.7 51.3 77 6.9 44.4
02:40 1015 29.97 844 24.92 10.8 51.4 77 6.9 44.5
02:45 1015 29.97 844 24.92 10.6 51.1 77 6.8 44.3
02:50 1015 29.97 844 24.92 10.3 50.6 78 6.6 43.9
02:55 1015 29.97 844 24.92 10.3 50.5 77 6.5 43.7
03:00 1015 29.97 844 24.92 10.2 50.3 78 6.6 43.8
03:05 1015 29.97 844 24.92 10.2 50.3 82 7.2 45
03:10 1015 29.97 844 24.92 10 50 78 6.3 43.4
03:15 1015 29.97 844 24.92 9.9 49.9 78 6.3 43.4
03:20 1015 29.97 844 24.92 10 49.9 79 6.4 43.6
03:25 1015 29.97 844 24.92 9.7 49.4 81 6.5 43.8
03:30 1015 29.97 844 24.92 9.5 49 80 6.2 43.2
03:35 1015 29.97 844 24.92 9.3 48.8 80 6 42.9
03:40 1015 29.97 844 24.92 9.6 49.3 78 6 42.9
03:45 1015 29.97 844 24.92 9.4 48.9 81 6.3 43.3
03:50 1015 29.97 844 24.92 9.1 48.3 81 5.9 42.7
03:55 1015 29.97 844 24.92 9.3 48.7 78 5.6 42.1
04:00 1015 29.97 844 24.92 9.5 49 78 5.8 42.5
04:05 1015 29.97 844 24.92 9.4 48.9 79 6 42.8
04:10 1015 29.97 844 24.92 9.3 48.7 79 5.8 42.4
04:15 1015 29.97 844 24.92 9 48.2 80 5.8 42.5
04:20 1015 29.97 844 24.92 8.9 48 80 5.7 42.2
04:25 1015 29.97 844 24.92 8.9 48 80 5.6 42.1
04:30 1015 29.97 844 24.92 9 48.2 80 5.7 42.3
04:35 1015 29.97 844 24.92 9.1 48.4 79 5.7 42.3
04:40 1015 29.97 844 24.92 8.9 48.1 80 5.6 42.1
04:45 1015 29.97 844 24.92 8.9 47.9 80 5.6 42.1
04:50 1015 29.97 844 24.92 8.8 47.9 79 5.4 41.8
04:55 1015 29.97 844 24.92 9 48.1 77 5.1 41.2
05:00 1015 29.97 844 24.92 9.5 49 74 5.2 41.3
05:05 1015 29.97 844 24.92 9.7 49.4 74 5.2 41.4
05:10 1015 29.97 844 24.92 9.7 49.4 75 5.4 41.8
05:15 1015 29.97 844 24.92 9.4 49 76 5.4 41.8
05:20 1015 29.97 844 24.92 9.3 48.7 76 5.3 41.6
05:25 1015 29.97 844 24.92 8.9 48 78 5.4 41.7
05:30 1015 29.97 844 24.92 8.9 48 78 5.2 41.4
05:35 1015 29.97 844 24.92 8.9 48 78 5.2 41.4
05:40 1015 29.97 844 24.92 8.8 47.8 78 5.1 41.2
05:45 1015 29.97 844 24.92 9.3 48.7 74 5 41
05:50 1015 29.97 844 24.92 9.1 48.5 77 5.3 41.6
05:55 1015 29.97 844 24.92 9.3 48.7 75 5 41.1
06:00 1015 29.97 844 24.92 9.7 49.4 73 5.2 41.3
06:05 1015 29.97 844 24.92 9.4 48.9 75 5.2 41.4
06:10 1015 29.97 844 24.92 9.3 48.7 75 5 41
06:15 1015 29.97 844 24.92 9.5 49.1 74 5.1 41.2
06:20 1015 29.97 844 24.92 9.6 49.3 74 5.3 41.5
06:25 1015 29.97 844 24.92 9.2 48.5 77 5.4 41.7
06:30 1015 29.97 844 24.92 8.8 47.8 78 5.2 41.3
06:35 1015 29.97 844 24.92 8.8 47.8 77 4.9 40.9
06:40 1015 29.97 844 24.92 8.9 48 77 5.1 41.2
06:45 1015 29.97 844 24.92 9 48.2 77 5.3 41.5
06:50 1015 29.97 844 24.92 9.1 48.3 78 5.4 41.7
06:55 1015 29.97 844 24.92 9.1 48.4 76 5.1 41.2
07:00 1015 29.97 844 24.92 9.2 48.6 77 5.5 41.8
07:05 1015 29.97 844 24.92 9.5 49.1 74 5.2 41.3
07:10 1015 29.97 844 24.92 10 50 74 5.6 42
07:15 1015 29.97 844 24.92 10.7 51.3 71 5.6 42.1
07:20 1015 29.97 844 24.92 11.1 52 71 6.1 43.1
07:25 1015 29.97 844 24.92 11.5 52.6 70 6.3 43.3
07:30 1015 29.97 844 24.92 11.3 52.3 71 6.2 43.1
07:35 1015 29.97 844 24.92 11.4 52.4 70 6.1 43
07:40 1015 29.97 844 24.92 12.3 54.1 67 6.3 43.4
07:45 1015 29.97 844 24.92 13.1 55.5 64 6.5 43.7
07:50 1015 29.97 844 24.92 13.7 56.7 62 6.7 44.1
07:55 1015 29.97 844 24.92 14.3 57.7 63 7.4 45.3
08:00 1015 29.97 844 24.92 14.3 57.8 66 8 46.4
08:05 1015 29.97 844 24.92 14.5 58.1 62 7.5 45.4
08:10 1015 29.97 844 24.92 14.9 58.8 63 8 46.3
08:15 1015 29.97 844 24.92 14.8 58.6 61 7.5 45.4
08:20 1015 29.97 844 24.92 15.2 59.4 59 7.4 45.3
08:25 1015 29.97 844 24.92 15.3 59.6 63 8.3 47
08:30 1015 29.97 844 24.92 15.7 60.2 59 7.8 46
08:35 1015 29.97 844 24.92 15.7 60.2 55 6.7 44.1
08:40 1015 29.97 844 24.92 15.7 60.3 56 7.1 44.8
08:45 1015 29.97 844 24.92 15.5 60 58 7.5 45.5
08:50 1015 29.97 844 24.92 15.6 60.2 58 7.6 45.6
08:55 1015 29.97 844 24.92 15.9 60.6 56 7.2 45
09:00 1015 29.97 844 24.92 16.4 61.5 55 7.5 45.6
09:05 1015 29.97 844 24.92 16.7 62.1 54 7.6 45.6
09:10 1015 29.97 844 24.92 16.7 62.1 55 7.7 45.9
09:15 1015 29.97 844 24.92 16.6 61.8 56 7.8 46.1
09:20 1015 29.97 844 24.92 16.4 61.4 55 7.5 45.4
09:25 1015 29.97 844 24.92 16.7 62.1 55 7.7 45.8
09:30 1015 29.97 845 24.95 16.6 61.9 55 7.6 45.6
09:35 1015 29.97 845 24.95 16.7 62.1 53 7.1 44.8
09:40 1015 29.97 845 24.95 17 62.5 54 7.6 45.7
09:45 1015 29.97 845 24.95 17.1 62.7 54 7.9 46.2
09:50 1015 29.97 845 24.95 17 62.6 55 7.9 46.3
09:55 1015 29.97 845 24.95 16.7 62 54 7.4 45.4
10:00 1015 29.97 845 24.95 16.9 62.3 55 8 46.4
10:05 1015 29.97 845 24.95 16.4 61.5 58 8.2 46.8
10:10 1015 29.97 845 24.95 16.4 61.5 59 8.4 47.1
10:15 1015 29.97 845 24.95 16.4 61.5 58 8.1 46.6
10:20 1015 29.97 845 24.95 16.6 61.8 57 8.1 46.7
10:25 1015 29.97 845 24.95 16.7 62.1 58 8.5 47.4
10:30 1015 29.97 844 24.92 16.8 62.2 57 8.2 46.8
10:35 1015 29.97 844 24.92 16.9 62.3 56 8 46.4
10:40 1015 29.97 844 24.92 16.8 62.3 57 8.3 46.9
10:45 1015 29.97 844 24.92 17.4 63.4 54 8.1 46.6
10:50 1015 29.97 844 24.92 18.4 65 51 8.3 46.9
10:55 1015 29.97 844 24.92 18.4 65.2 52 8.6 47.5
11:00 1015 29.97 844 24.92 18.5 65.3 52 8.6 47.5
11:05 1015 29.97 844 24.92 17.8 64.1 56 8.9 48.1
11:10 1015 29.97 844 24.92 17.7 63.9 52 7.9 46.2
11:15 1015 29.97 844 24.92 18.3 64.9 51 8.1 46.5
11:20 1015 29.97 844 24.92 18.2 64.8 52 8.4 47.2
11:25 1015 29.97 844 24.92 18.7 65.6 53 9 48.2
11:30 1015 29.97 844 24.92 18.2 64.7 55 9.2 48.5
11:35 1015 29.97 844 24.92 17.7 63.8 56 9 48.2
11:40 1015 29.97 844 24.92 17.3 63.2 56 8.6 47.5
11:45 1015 29.97 844 24.92 17.9 64.1 51 7.7 45.9
11:50 1015 29.97 844 24.92 18.4 65.2 52 8.6 47.5
11:55 1015 29.97 844 24.92 17.5 63.5 55 8.3 47
12:00 1015 29.97 844 24.92 17.3 63.1 55 8.4 47.1
12:05 1015 29.97 844 24.92 17.7 63.8 53 8 46.5
12:10 1015 29.97 844 24.92 18.1 64.5 53 8.6 47.4
12:15 1015 29.97 844 24.92 18.3 64.9 52 8.4 47.2
12:20 1015 29.97 844 24.92 18.1 64.6 53 8.4 47.1
12:25 1015 29.97 844 24.92 18.2 64.7 52 8.2 46.7
12:30 1015 29.97 844 24.92 18.1 64.5 52 8.2 46.7
12:35 1015 29.97 844 24.92 17.8 64.1 54 8.6 47.4
12:40 1015 29.97 844 24.92 17.3 63.2 56 8.6 47.5
12:45 1015 29.97 844 24.92 17.1 62.7 60 9.2 48.6
12:50 1015 29.97 844 24.92 16.9 62.4 61 9.5 49.1
12:55 1015 29.97 844 24.92 17.2 62.9 61 9.8 49.6
13:00 1015 29.97 845 24.95 17.3 63.1 58 9 48.2
13:05 1015 29.97 845 24.95 17.3 63.2 56 8.6 47.5
13:10 1015 29.97 845 24.95 17.3 63.1 58 9 48.1
13:15 1016 30 845 24.95 17 62.6 59 9 48.2
13:20 1016 30 845 24.95 17 62.7 59 9 48.2
13:25 1016 30 845 24.95 16.9 62.4 61 9.4 49
13:30 1015 29.97 845 24.95 16.7 62.1 64 9.9 49.8
13:35 1015 29.97 845 24.95 16.8 62.2 60 9 48.2
13:40 1015 29.97 845 24.95 17 62.6 56 8.4 47.1
13:45 1015 29.97 844 24.92 17.5 63.4 45 5.7 42.2
13:50 1015 29.97 844 24.92 17.7 63.8 43 5 41
13:55 1015 29.97 844 24.92 18.1 64.6 42 5.2 41.4
14:00 1015 29.97 844 24.92 18.1 64.5 42 5.2 41.4
14:05 1015 29.97 844 24.92 17.7 63.9 40 4.1 39.4
14:10 1015 29.97 844 24.92 17.5 63.6 42 4.5 40.1
14:15 1015 29.97 844 24.92 17.6 63.6 44 5.2 41.4
14:20 1015 29.97 844 24.92 17.7 63.9 40 4 39.2
14:25 1015 29.97 844 24.92 17.6 63.7 42 4.6 40.2
14:30 1015 29.97 844 24.92 17.3 63.2 43 4.8 40.7
14:35 1015 29.97 844 24.92 16.8 62.3 47 5.6 42.1
14:40 1015 29.97 844 24.92 16.1 60.9 55 7.2 44.9
14:45 1015 29.97 844 24.92 15.3 59.6 57 6.9 44.5
14:50 1015 29.97 844 24.92 15.2 59.4 59 7.2 45
14:55 1015 29.97 844 24.92 15.6 60.1 61 8.3 47
15:00 1015 29.97 844 24.92 15.9 60.6 55 7.1 44.8
15:05 1015 29.97 844 24.92 16.4 61.5 52 6.6 43.8
15:10 1015 29.97 844 24.92 17.4 63.4 51 7.4 45.3
15:15 1015 29.97 844 24.92 17.9 64.2 47 6.4 43.6
15:20 1015 29.97 844 24.92 17.7 63.9 46 6.1 43.1
15:25 1015 29.97 844 24.92 17.1 62.9 47 5.9 42.7
15:30 1015 29.97 844 24.92 16.6 61.8 45 4.7 40.4
15:35 1015 29.97 844 24.92 17.1 62.7 47 5.8 42.4
15:40 1015 29.97 844 24.92 17.2 62.9 47 6 42.8
15:45 1015 29.97 844 24.92 17.7 63.9 43 5 41
15:50 1015 29.97 844 24.92 18 64.3 42 4.8 40.7
15:55 1015 29.97 844 24.92 18.6 65.5 39 4.7 40.4
16:00 1015 29.97 844 24.92 19.3 66.7 37 4.3 39.8
16:05 1015 29.97 844 24.92 19.7 67.4 38 5.1 41.2
16:10 1015 29.97 844 24.92 20 67.9 36 4.5 40.2
16:15 1015 29.97 844 24.92 20.1 68.2 37 5 41
16:20 1015 29.97 844 24.92 20.1 68.2 37 5.2 41.4
16:25 1015 29.97 844 24.92 20.2 68.3 35 4.5 40
16:30 1015 29.97 844 24.92 20.7 69.2 34 4.3 39.8
16:35 1015 29.97 844 24.92 20.3 68.5 37 5.1 41.2
16:40 1015 29.97 844 24.92 19.8 67.7 35 4.2 39.6
16:45 1015 29.97 844 24.92 20.9 69.6 34 4.4 40
16:50 1015 29.97 844 24.92 21.7 71 31 3.9 39
16:55 1015 29.97 844 24.92 21.1 70 34 4.8 40.6
17:00 1015 29.97 844 24.92 19.6 67.2 35 4 39.2
17:05 1015 29.97 844 24.92 19.5 67.1 36 4 39.2
17:10 1015 29.97 844 24.92 18.8 65.8 52 8.8 47.9
17:15 1015 29.97 844 24.92 16.9 62.5 59 9 48.1
17:20 1015 29.97 844 24.92 16.3 61.3 61 8.9 48
17:25 1015 29.97 845 24.95 16.4 61.5 59 8.3 47
17:30 1015 29.97 845 24.95 16.9 62.3 58 8.5 47.4
17:35 1016 30 845 24.95 16.4 61.6 59 8.4 47.1
17:40 1015 29.97 845 24.95 16.7 62.1 56 8.1 46.6
17:45 1016 30 845 24.95 16.9 62.5 54 7.8 46
17:50 1016 30 845 24.95 17.1 62.9 56 8.3 47
17:55 1016 30 845 24.95 16.8 62.3 55 7.9 46.2
18:00 1016 30 845 24.95 16.6 61.9 55 7.6 45.7
18:05 1016 30 845 24.95 16.7 62.1 54 7.5 45.5
18:10 1016 30 845 24.95 16.8 62.2 54 7.6 45.6
18:15 1016 30 845 24.95 17 62.7 52 7.1 44.8
18:20 1016 30 845 24.95 17 62.6 54 7.8 46
18:25 1016 30 845 24.95 17.1 62.8 56 8.3 46.9
18:30 1016 30 845 24.95 17 62.6 57 8.4 47.1
18:35 1016 30 845 24.95 16.3 61.3 60 8.6 47.5
18:40 1016 30 845 24.95 15.9 60.7 57 7.6 45.6
18:45 1016 30 845 24.95 16.3 61.4 55 7.4 45.2
18:50 1016 30 845 24.95 16.3 61.3 56 7.6 45.7
18:55 1016 30 845 24.95 16.3 61.3 56 7.6 45.7
19:00 1016 30 845 24.95 16.1 60.9 56 7.3 45.1
19:05 1016 30 845 24.95 15.8 60.4 57 7.4 45.2
19:10 1016 30 845 24.95 15.5 59.8 58 7.3 45.1
19:15 1016 30 845 24.95 15.2 59.4 59 7.4 45.3
19:20 1016 30 845 24.95 15 59 61 7.6 45.7
19:25 1016 30 845 24.95 14.8 58.7 63 7.9 46.2
19:30 1016 30 845 24.95 14.5 58.1 65 8.1 46.6
19:35 1016 30 845 24.95 14.3 57.7 65 7.8 46.1
19:40 1016 30 845 24.95 14.6 58.2 65 8.2 46.7
19:45 1016 30 845 24.95 14.9 58.8 64 8.1 46.6
19:50 1016 30 845 24.95 14.6 58.3 67 8.6 47.4
19:55 1016 30 845 24.95 14.1 57.5 70 8.8 47.9
20:00 1016 30 845 24.95 13.9 57 69 8.4 47.2
20:05 1016 30 846 24.98 13.7 56.7 73 9 48.1
20:10 1016 30 846 24.98 13.8 56.9 70 8.6 47.4
20:15 1016 30 846 24.98 13.9 57 70 8.5 47.3
20:20 1017 30.03 846 24.98 13.9 57 70 8.6 47.4
20:25 1017 30.03 846 24.98 14 57.3 69 8.6 47.4
20:30 1017 30.03 846 24.98 14 57.3 71 8.9 48
20:35 1017 30.03 846 24.98 13.8 56.8 72 8.9 48.1
20:40 1017 30.03 846 24.98 13.7 56.7 74 9.1 48.4
20:45 1017 30.03 846 24.98 13.6 56.6 71 8.6 47.4
20:50 1017 30.03 846 24.98 13.6 56.4 73 8.8 47.8
20:55 1017 30.03 846 24.98 13.4 56.2 74 8.9 48
21:00 1017 30.03 846 24.98 13.4 56.1 73 8.6 47.5
21:05 1017 30.03 846 24.98 13.3 55.9 72 8.5 47.3
21:10 1017 30.03 846 24.98 13.3 56 73 8.7 47.6
21:15 1017 30.03 846 24.98 13.3 55.9 74 8.8 47.8
21:20 1017 30.03 846 24.98 13.3 55.9 75 9 48.2
21:25 1017 30.03 846 24.98 13.3 55.9 76 9.2 48.5
21:30 1017 30.03 846 24.98 13 55.5 76 8.9 48.1
21:35 1017 30.03 846 24.98 13.1 55.5 76 8.9 48.1
21:40 1017 30.03 846 24.98 13.1 55.5 75 8.8 47.9
21:45 1017 30.03 846 24.98 12.9 55.1 76 8.7 47.7
21:50 1017 30.03 846 24.98 12.9 55.1 77 8.9 48
21:55 1017 30.03 846 24.98 12.8 55 76 8.7 47.6
22:00 1017 30.03 847 25.01 12.8 55.1 75 8.5 47.3
22:05 1017 30.03 846 24.98 13 55.3 75 8.7 47.6
22:10 1017 30.03 846 24.98 12.9 55.1 75 8.6 47.4
22:15 1017 30.03 846 24.98 12.9 55.3 74 8.4 47.2
22:20 1017 30.03 846 24.98 13 55.4 74 8.4 47.2
22:25 1017 30.03 846 24.98 13.1 55.6 74 8.5 47.3
22:30 1017 30.03 846 24.98 13 55.5 74 8.6 47.5
22:35 1017 30.03 846 24.98 13 55.3 75 8.7 47.6
22:40 1017 30.03 846 24.98 12.9 55.3 76 8.8 47.8
22:45 1017 30.03 847 25.01 12.9 55.1 77 8.9 48.1
22:50 1017 30.03 847 25.01 12.6 54.7 77 8.8 47.8
22:55 1017 30.03 847 25.01 12.7 54.8 77 8.8 47.8
23:00 1017 30.03 847 25.01 12.6 54.7 77 8.8 47.8
23:05 1018 30.06 847 25.01 12.6 54.8 77 8.8 47.9
23:10 1018 30.06 847 25.01 12.7 54.8 78 8.9 48
23:15 1017 30.03 847 25.01 12.6 54.7 78 9 48.1
23:20 1017 30.03 847 25.01 12.5 54.5 79 9.1 48.3
23:25 1017 30.03 847 25.01 12.3 54.1 80 8.9 48.1
23:30 1017 30.03 847 25.01 12.3 54.1 81 9 48.3
23:35 1018 30.06 847 25.01 12.2 53.9 81 9 48.3
23:40 1018 30.06 847 25.01 12.2 53.9 81 9.1 48.4
23:45 1018 30.06 847 25.01 12.1 53.8 82 9.1 48.3
23:50 1018 30.06 847 25.01 12.1 53.7 82 9.2 48.5
23:55 1018 30.06 847 25.01 12 53.6 82 9 48.2
24:00 1018 30.06 847 25.01 11.9 53.4 83 9 48.3